createdAt,value
2022-10-19T00:04:03.524Z,6.68
2022-10-19T00:09:14.054Z,6.72
2022-10-19T00:14:19.772Z,6.60
2022-10-19T00:19:26.225Z,6.15
2022-10-19T00:24:31.383Z,6.47
2022-10-19T00:29:34.965Z,6.93
2022-10-19T00:34:39.174Z,7.00
2022-10-19T00:39:44.394Z,6.80
2022-10-19T00:50:32.208Z,6.28
2022-10-19T00:55:39.639Z,6.82
2022-10-19T01:00:43.310Z,6.63
2022-10-19T01:05:46.998Z,6.75
2022-10-19T01:11:01.670Z,6.57
2022-10-19T01:16:12.998Z,6.53
2022-10-19T01:21:22.097Z,6.10
2022-10-19T01:26:48.300Z,6.00
2022-10-19T01:32:01.072Z,5.10
2022-10-19T01:37:13.884Z,6.60
2022-10-19T01:42:24.985Z,6.10
2022-10-19T01:47:35.585Z,5.95
2022-10-19T01:52:41.563Z,5.80
2022-10-19T01:57:49.989Z,5.78
2022-10-19T02:02:58.844Z,5.50
2022-10-19T02:08:07.108Z,5.47
2022-10-19T02:13:12.466Z,5.40
2022-10-19T02:18:24.479Z,5.28
2022-10-19T02:23:28.094Z,5.70
2022-10-19T02:28:31.969Z,5.30
2022-10-19T02:33:38.348Z,5.60
2022-10-19T02:38:43.552Z,5.80
2022-10-19T02:48:59.998Z,5.80
2022-10-19T02:54:05.618Z,5.53
2022-10-19T02:59:09.202Z,5.82
2022-10-19T03:04:14.370Z,5.80
2022-10-19T03:09:18.015Z,5.60
2022-10-19T03:14:21.565Z,6.15
2022-10-19T03:19:27.019Z,6.10
2022-10-19T03:24:31.928Z,5.38
2022-10-19T03:29:35.539Z,6.10
2022-10-19T03:34:40.709Z,6.45
2022-10-19T03:39:44.236Z,6.68
2022-10-19T03:44:47.755Z,6.15
2022-10-19T03:49:52.894Z,6.60
2022-10-19T03:54:56.780Z,6.22
2022-10-19T04:00:07.865Z,6.30
2022-10-19T04:05:16.373Z,6.50
2022-10-19T04:10:20.011Z,6.18
2022-10-19T04:15:23.543Z,6.05
2022-10-19T04:20:28.725Z,6.00
2022-10-19T04:25:32.344Z,6.05
2022-10-19T04:30:36.037Z,6.32
2022-10-19T04:35:41.184Z,6.30
2022-10-19T04:40:44.706Z,6.00
2022-10-19T04:45:48.246Z,6.03
2022-10-19T04:50:55.568Z,6.25
2022-10-19T04:55:59.116Z,6.28
2022-10-19T05:01:08.877Z,6.60
2022-10-19T05:06:15.786Z,6.38
2022-10-19T05:11:20.006Z,6.50
2022-10-19T05:16:24.640Z,6.75
2022-10-19T05:21:31.167Z,6.13
2022-10-19T05:26:34.682Z,6.15
2022-10-19T05:31:38.233Z,6.47
2022-10-19T05:36:43.419Z,6.45
2022-10-19T05:41:47.891Z,6.53
2022-10-19T05:46:55.131Z,6.43
2022-10-19T05:52:00.394Z,6.07
2022-10-19T05:57:03.957Z,6.22
2022-10-19T06:02:07.951Z,6.47
2022-10-19T06:07:13.263Z,6.07
2022-10-19T06:12:20.442Z,6.60
2022-10-19T06:17:29.698Z,6.18
2022-10-19T06:22:34.892Z,6.63
2022-10-19T06:27:38.689Z,6.30
2022-10-19T06:32:42.399Z,6.30
2022-10-19T06:37:47.634Z,6.75
2022-10-19T06:42:51.204Z,6.45
2022-10-19T06:47:54.745Z,6.28
2022-10-19T06:53:00.172Z,6.88
2022-10-19T06:58:03.865Z,6.55
2022-10-19T07:03:07.758Z,6.55
2022-10-19T07:08:12.997Z,6.15
2022-10-19T07:13:16.615Z,6.70
2022-10-19T07:18:20.128Z,6.38
2022-10-19T07:23:25.966Z,7.00
2022-10-19T07:28:30.631Z,6.85
2022-10-19T07:33:34.395Z,6.60
2022-10-19T07:38:39.590Z,7.05
2022-10-19T07:43:44.101Z,6.90
2022-10-19T07:48:47.798Z,6.93
2022-10-19T07:53:54.289Z,6.63
2022-10-19T07:58:59.485Z,7.10
2022-10-19T08:09:51.358Z,6.88
2022-10-19T08:14:52.931Z,6.57
2022-10-19T08:19:56.430Z,7.18
2022-10-19T08:25:01.636Z,6.70
2022-10-19T08:30:05.647Z,7.00
2022-10-19T08:35:10.759Z,7.43
2022-10-19T08:40:22.658Z,6.93
2022-10-19T08:50:46.023Z,6.93
2022-10-19T08:56:03.702Z,7.07
2022-10-19T09:01:15.378Z,6.93
2022-10-19T09:06:24.449Z,7.55
2022-10-19T09:11:33.420Z,7.65
2022-10-19T09:16:37.362Z,7.05
2022-10-19T09:21:47.873Z,6.75
2022-10-19T09:26:56.299Z,7.65
2022-10-19T09:32:02.434Z,7.20
2022-10-19T09:37:06.170Z,6.88
2022-10-19T09:42:18.733Z,6.80
2022-10-19T09:47:33.279Z,7.25
2022-10-19T09:52:40.281Z,6.28
2022-10-19T10:02:54.534Z,7.03
2022-10-19T10:07:58.129Z,6.78
2022-10-19T10:13:04.026Z,6.68
2022-10-19T10:23:25.396Z,6.82
2022-10-19T10:28:31.423Z,6.78
2022-10-19T10:33:44.915Z,6.32
2022-10-19T10:38:54.032Z,6.90
2022-10-19T10:44:04.426Z,6.13
2022-10-19T10:49:17.578Z,6.70
2022-10-19T10:54:23.945Z,7.10
2022-10-19T10:59:34.736Z,6.60
2022-10-19T11:04:41.897Z,6.68
2022-10-19T11:09:51.602Z,6.25
2022-10-19T11:15:03.522Z,6.10
2022-10-19T11:20:08.384Z,6.28
2022-10-19T11:25:36.645Z,6.63
2022-10-19T11:30:56.227Z,6.80
2022-10-19T11:36:03.528Z,6.20
2022-10-19T11:41:18.594Z,6.47
2022-10-19T11:46:30.199Z,6.40
2022-10-19T11:51:38.007Z,6.47
2022-10-19T11:57:03.192Z,6.60
2022-10-19T12:02:28.063Z,6.80
2022-10-19T12:07:50.626Z,6.43
2022-10-19T12:12:58.311Z,6.32
2022-10-19T12:18:11.123Z,6.75
2022-10-19T12:23:25.587Z,6.68
2022-10-19T12:28:31.871Z,6.50
2022-10-19T12:33:46.528Z,6.13
2022-10-19T12:39:02.083Z,6.20
2022-10-19T12:44:21.697Z,5.90
2022-10-19T12:49:45.182Z,5.90
2022-10-19T12:54:48.840Z,6.20
2022-10-19T13:00:05.831Z,5.90
2022-10-19T13:05:21.918Z,6.28
2022-10-19T13:10:28.046Z,5.50
2022-10-19T13:15:52.617Z,6.05
2022-10-19T13:20:57.909Z,6.00
2022-10-19T13:26:31.630Z,5.00
2022-10-19T13:31:35.294Z,5.82
2022-10-19T13:36:59.460Z,5.70
2022-10-19T13:42:02.998Z,5.60
2022-10-19T13:47:39.687Z,6.00
2022-10-19T13:58:25.808Z,5.75
2022-10-19T14:03:39.984Z,5.85
2022-10-19T14:09:20.613Z,5.55
2022-10-19T14:14:26.441Z,5.70
2022-10-19T14:19:32.584Z,5.55
2022-10-19T14:24:37.790Z,5.90
2022-10-19T14:29:48.011Z,5.63
2022-10-19T14:34:52.123Z,5.65
2022-10-19T14:40:02.781Z,6.00
2022-10-19T14:45:12.945Z,5.75
2022-10-19T14:50:16.748Z,5.55
2022-10-19T14:55:22.632Z,5.47
2022-10-19T15:05:36.463Z,5.40
2022-10-19T15:10:44.854Z,5.60
2022-10-19T15:15:52.222Z,4.90
2022-10-19T15:21:12.148Z,4.90
2022-10-19T15:26:28.131Z,5.18
2022-10-19T15:31:31.665Z,4.87
2022-10-19T15:36:35.222Z,4.60
2022-10-19T15:41:40.787Z,4.95
2022-10-19T15:47:14.493Z,5.30
2022-10-19T15:52:19.024Z,5.40
2022-10-19T15:57:33.245Z,4.88
2022-10-19T16:02:37.272Z,5.00
2022-10-19T16:07:41.690Z,5.18
2022-10-19T16:12:47.059Z,5.47
2022-10-19T16:17:52.773Z,5.65
2022-10-19T16:22:56.589Z,5.47
2022-10-19T16:28:01.785Z,5.68
2022-10-19T16:33:05.418Z,5.18
2022-10-19T16:38:08.947Z,4.93
2022-10-19T16:43:14.148Z,5.10
2022-10-19T16:48:20.806Z,4.38
2022-10-19T16:53:27.310Z,4.60
2022-10-19T16:58:32.498Z,4.75
2022-10-19T17:03:36.141Z,4.70
2022-10-19T17:09:02.734Z,5.40
2022-10-19T17:14:06.967Z,5.00
2022-10-19T17:19:11.681Z,5.57
2022-10-19T17:24:20.389Z,5.70
2022-10-19T17:29:26.714Z,5.55
2022-10-19T17:39:33.166Z,5.50
2022-10-19T17:44:38.493Z,5.28
2022-10-19T17:49:42.122Z,5.00
2022-10-19T17:55:00.580Z,5.18
2022-10-19T18:00:14.466Z,5.55
2022-10-19T18:05:18.129Z,5.30
2022-10-19T18:10:21.701Z,5.57
2022-10-19T18:15:26.963Z,5.75
2022-10-19T18:20:30.502Z,5.22
2022-10-19T18:25:53.545Z,5.47
2022-10-19T18:31:05.947Z,5.80
2022-10-19T18:36:11.442Z,4.90
2022-10-19T18:41:15.032Z,5.60
2022-10-19T18:46:21.694Z,5.75
2022-10-19T18:51:25.470Z,5.22
2022-10-19T18:56:29.227Z,5.38
2022-10-19T19:01:37.197Z,5.18
2022-10-19T19:06:41.078Z,4.88
2022-10-19T19:11:44.615Z,5.00
2022-10-19T19:16:49.824Z,5.10
2022-10-19T19:21:53.345Z,5.15
2022-10-19T19:26:56.869Z,5.10
2022-10-19T19:32:02.014Z,5.10
2022-10-19T19:37:08.885Z,4.97
2022-10-19T19:42:15.490Z,5.20
2022-10-19T19:47:20.658Z,4.82
2022-10-19T19:52:24.186Z,4.43
2022-10-19T19:57:27.727Z,4.55
2022-10-19T20:02:32.941Z,4.47
2022-10-19T20:07:36.846Z,4.38
2022-10-19T20:12:40.602Z,4.18
2022-10-19T20:17:46.654Z,4.17
2022-10-19T20:22:50.663Z,4.30
2022-10-19T20:27:54.278Z,4.03
2022-10-19T20:33:00.408Z,4.27
2022-10-19T20:38:03.981Z,4.00
2022-10-19T20:43:07.504Z,4.13
2022-10-19T20:48:12.670Z,3.70
2022-10-19T20:53:16.176Z,3.92
2022-10-19T20:58:19.690Z,3.97
2022-10-19T21:03:24.887Z,3.50
2022-10-19T21:08:28.445Z,3.50
2022-10-19T21:13:31.974Z,3.20
2022-10-19T21:18:38.994Z,3.40
2022-10-19T21:23:42.678Z,3.10
2022-10-19T21:28:49.738Z,3.17
2022-10-19T21:33:55.423Z,3.30
2022-10-19T21:38:59.414Z,3.65
2022-10-19T21:44:02.941Z,3.53
2022-10-19T21:49:08.108Z,3.17
2022-10-19T21:54:13.724Z,3.25
2022-10-19T21:59:17.868Z,3.20
2022-10-19T22:09:25.856Z,3.83
2022-10-19T22:14:29.393Z,3.20
2022-10-19T22:19:34.590Z,3.30
2022-10-19T22:24:41.068Z,3.45
2022-10-19T22:29:44.660Z,3.80
2022-10-19T22:34:50.799Z,3.47
2022-10-19T22:39:54.311Z,3.60
2022-10-19T22:44:57.907Z,4.27
2022-10-19T22:50:03.174Z,4.13
2022-10-19T22:55:07.341Z,4.40
2022-10-19T23:05:16.198Z,3.72
2022-10-19T23:10:19.874Z,4.00
2022-10-19T23:15:23.466Z,4.20
2022-10-19T23:20:28.736Z,4.20
2022-10-19T23:30:40.710Z,4.10
2022-10-19T23:35:45.962Z,3.60
2022-10-19T23:40:49.517Z,4.10
2022-10-19T23:45:53.032Z,4.00
2022-10-19T23:51:03.163Z,3.60
2022-10-19T23:56:08.973Z,3.65
